Terminal Aerodrome Forecast
Issued by NWS Wilmington, OH

Home | Current Version | Previous Version | Text Only | Print | Product List | Glossary On
Versions: 1 2 3 4 5 6 7 8 9 10 11 12 13 14 15 16 17 18 19 20 21 22 23 24 25 26 27 28 29 30
415
FTUS41 KILN 232320
TAFCVG
TAF
KCVG 232320Z 2400/2506 26006KT P6SM VCSH SCT035 BKN080
     FM240200 25005KT P6SM SCT040
     FM240700 23004KT 5SM BR SCT250
      TEMPO 2408/2412 2SM BR
     FM241400 27005KT P6SM SCT035
     FM241800 31008KT P6SM SCT050=

USA.gov is the U.S. government's official web portal to all federal, state and local government web resources and services.